Private Wetterstation Sandau
Wetterdaten: Sonntag, 13.05.2012
Datum Zeit Temp. A. Feuchte A. Luftdruck Regen Wind Richtung Richtung Taupunkt Windchill
13.05.2012 00:01 6,9 C 70 % 1032,4 hPa 0,0 l/m 6,1 km/h (2 Bft) W 270 1,8 C 5,9 C
13.05.2012 00:06 6,8 C 70 % 1032,3 hPa 0,0 l/m 9,4 km/h (2 Bft) W-NW 292 1,7 C 4,9 C
13.05.2012 00:11 6,7 C 70 % 1032,4 hPa 0,0 l/m 7,6 km/h (2 Bft) W 270 1,6 C 5,2 C
13.05.2012 00:16 6,6 C 71 % 1032,3 hPa 0,0 l/m 7,9 km/h (2 Bft) W 270 1,7 C 5,0 C
13.05.2012 00:21 6,6 C 71 % 1032,4 hPa 0,0 l/m 4,7 km/h (1 Bft) NW 315 1,7 C 6,0 C
13.05.2012 00:26 6,5 C 71 % 1032,4 hPa 0,0 l/m 9,0 km/h (2 Bft) W 270 1,6 C 4,7 C
13.05.2012 00:31 6,5 C 71 % 1032,5 hPa 0,0 l/m 8,3 km/h (2 Bft) W-NW 292 1,6 C 4,8 C
13.05.2012 00:36 6,5 C 72 % 1032,4 hPa 0,0 l/m 5,8 km/h (2 Bft) W-SW 247 1,8 C 5,5 C
13.05.2012 00:41 6,4 C 72 % 1032,6 hPa 0,0 l/m 8,6 km/h (2 Bft) W 270 1,7 C 4,6 C
13.05.2012 00:46 6,4 C 72 % 1032,6 hPa 0,0 l/m 12,2 km/h (2 Bft) W-NW 292 1,7 C 3,9 C
13.05.2012 00:51 6,3 C 72 % 1032,6 hPa 0,0 l/m 8,3 km/h (2 Bft) W-NW 292 1,6 C 4,6 C
13.05.2012 00:56 6,3 C 72 % 1032,6 hPa 0,0 l/m 7,2 km/h (2 Bft) NW 315 1,6 C 4,9 C
13.05.2012 01:01 6,2 C 72 % 1032,4 hPa 0,0 l/m 7,2 km/h (2 Bft) W-NW 292 1,5 C 4,8 C
13.05.2012 01:06 6,1 C 73 % 1032,4 hPa 0,0 l/m 7,6 km/h (2 Bft) W-NW 292 1,6 C 4,5 C
13.05.2012 01:11 6,1 C 73 % 1032,4 hPa 0,0 l/m 6,5 km/h (2 Bft) W 270 1,6 C 4,8 C
13.05.2012 01:16 6,1 C 73 % 1032,3 hPa 0,0 l/m 3,2 km/h (1 Bft) W-SW 247 1,6 C 6,1 C
13.05.2012 01:21 5,9 C 73 % 1032,4 hPa 0,0 l/m 9,4 km/h (2 Bft) W-NW 292 1,4 C 3,9 C
13.05.2012 01:26 5,9 C 73 % 1032,3 hPa 0,0 l/m 7,2 km/h (2 Bft) W-NW 292 1,4 C 4,4 C
13.05.2012 01:31 5,9 C 74 % 1032,4 hPa 0,0 l/m 15,1 km/h (3 Bft) W-NW 292 1,6 C 2,8 C
13.05.2012 01:36 5,9 C 74 % 1032,3 hPa 0,0 l/m 11,5 km/h (2 Bft) W-NW 292 1,6 C 3,4 C
13.05.2012 01:41 5,8 C 74 % 1032,4 hPa 0,0 l/m 6,8 km/h (2 Bft) W-NW 292 1,5 C 4,4 C
13.05.2012 01:46 5,8 C 74 % 1032,3 hPa 0,0 l/m 9,7 km/h (2 Bft) W-SW 247 1,5 C 3,7 C
13.05.2012 01:51 5,8 C 74 % 1032,2 hPa 0,0 l/m 4,0 km/h (1 Bft) W-NW 292 1,5 C 5,8 C
13.05.2012 01:56 5,8 C 75 % 1032,2 hPa 0,0 l/m 11,5 km/h (2 Bft) W 270 1,7 C 3,3 C
13.05.2012 02:01 5,7 C 75 % 1032,1 hPa 0,0 l/m 5,0 km/h (1 Bft) W 270 1,6 C 4,9 C
13.05.2012 02:06 5,6 C 75 % 1032,0 hPa 0,0 l/m 6,1 km/h (2 Bft) W-NW 292 1,5 C 4,4 C
13.05.2012 02:11 5,6 C 75 % 1032,0 hPa 0,0 l/m 8,3 km/h (2 Bft) W 270 1,5 C 3,8 C
13.05.2012 02:16 5,6 C 76 % 1032,0 hPa 0,0 l/m 10,1 km/h (2 Bft) W 270 1,7 C 3,4 C
13.05.2012 02:21 5,5 C 76 % 1032,1 hPa 0,0 l/m 10,4 km/h (2 Bft) SW 225 1,6 C 3,2 C
13.05.2012 02:26 5,5 C 77 % 1032,0 hPa 0,0 l/m 13,0 km/h (3 Bft) W-NW 292 1,8 C 2,7 C
13.05.2012 02:31 5,4 C 77 % 1032,0 hPa 0,0 l/m 5,0 km/h (1 Bft) W 270 1,7 C 4,5 C
13.05.2012 02:36 5,4 C 77 % 1032,0 hPa 0,0 l/m 16,2 km/h (3 Bft) W-NW 292 1,7 C 2,1 C
13.05.2012 02:41 5,4 C 77 % 1032,0 hPa 0,0 l/m 7,2 km/h (2 Bft) W-NW 292 1,7 C 3,8 C
13.05.2012 02:46 5,4 C 77 % 1032,1 hPa 0,0 l/m 4,7 km/h (1 Bft) N-NW 337 1,7 C 4,7 C
13.05.2012 02:51 5,4 C 77 % 1032,1 hPa 0,0 l/m 9,7 km/h (2 Bft) W-NW 292 1,7 C 3,2 C
13.05.2012 02:56 5,3 C 77 % 1032,1 hPa 0,0 l/m 4,3 km/h (1 Bft) W-SW 247 1,6 C 5,3 C
13.05.2012 03:01 5,3 C 78 % 1031,9 hPa 0,0 l/m 11,2 km/h (2 Bft) W-NW 292 1,8 C 2,8 C
13.05.2012 03:06 5,3 C 78 % 1031,9 hPa 0,0 l/m 11,2 km/h (2 Bft) W-NW 292 1,8 C 2,8 C
13.05.2012 03:11 5,2 C 78 % 1032,0 hPa 0,0 l/m 8,3 km/h (2 Bft) W 270 1,7 C 3,3 C
13.05.2012 03:16 5,1 C 79 % 1031,9 hPa 0,0 l/m 10,8 km/h (2 Bft) W 270 1,8 C 2,6 C
13.05.2012 03:21 5,1 C 79 % 1031,9 hPa 0,0 l/m 9,0 km/h (2 Bft) W 270 1,8 C 3,0 C
13.05.2012 03:26 5,1 C 79 % 1031,9 hPa 0,0 l/m 4,0 km/h (1 Bft) W 270 1,8 C 5,1 C
13.05.2012 03:31 5,1 C 79 % 1031,9 hPa 0,0 l/m 7,6 km/h (2 Bft) W-NW 292 1,8 C 3,4 C
13.05.2012 03:36 5,1 C 79 % 1031,9 hPa 0,0 l/m 6,5 km/h (2 Bft) W-NW 292 1,8 C 3,7 C
13.05.2012 03:41 5,1 C 80 % 1031,9 hPa 0,0 l/m 9,7 km/h (2 Bft) W-NW 292 1,9 C 2,8 C
13.05.2012 03:46 5,1 C 80 % 1031,8 hPa 0,0 l/m 6,1 km/h (2 Bft) W 270 1,9 C 3,8 C
13.05.2012 03:51 5,1 C 80 % 1031,7 hPa 0,0 l/m 8,3 km/h (2 Bft) W 270 1,9 C 3,2 C
13.05.2012 03:56 5,0 C 80 % 1031,8 hPa 0,0 l/m 5,8 km/h (2 Bft) W 270 1,8 C 3,8 C
13.05.2012 04:01 5,0 C 80 % 1031,7 hPa 0,0 l/m 6,8 km/h (2 Bft) W 270 1,8 C 3,5 C
13.05.2012 04:06 5,0 C 80 % 1031,6 hPa 0,0 l/m 6,8 km/h (2 Bft) W 270 1,8 C 3,5 C
13.05.2012 04:11 5,0 C 80 % 1031,5 hPa 0,0 l/m 13,3 km/h (3 Bft) W 270 1,8 C 2,0 C
13.05.2012 04:16 5,0 C 80 % 1031,6 hPa 0,0 l/m 8,6 km/h (2 Bft) W-NW 292 1,8 C 3,0 C
13.05.2012 04:21 5,0 C 80 % 1031,5 hPa 0,0 l/m 7,2 km/h (2 Bft) W 270 1,8 C 3,4 C
13.05.2012 04:26 5,0 C 81 % 1031,3 hPa 0,0 l/m 9,0 km/h (2 Bft) W 270 2,0 C 2,9 C
13.05.2012 04:31 5,0 C 81 % 1031,4 hPa 0,0 l/m 12,2 km/h (2 Bft) W 270 2,0 C 2,2 C
13.05.2012 04:36 4,9 C 81 % 1031,4 hPa 0,0 l/m 7,6 km/h (2 Bft) W 270 1,9 C 3,1 C
13.05.2012 04:41 4,9 C 81 % 1031,3 hPa 0,0 l/m 4,0 km/h (1 Bft) W-SW 247 1,9 C 4,9 C
13.05.2012 04:46 4,9 C 81 % 1031,2 hPa 0,0 l/m 15,1 km/h (3 Bft) W-NW 292 1,9 C 1,6 C
13.05.2012 04:51 4,9 C 81 % 1031,3 hPa 0,0 l/m 6,8 km/h (2 Bft) W-NW 292 1,9 C 3,4 C
13.05.2012 04:56 4,9 C 81 % 1031,3 hPa 0,0 l/m 8,6 km/h (2 Bft) W 270 1,9 C 2,9 C
13.05.2012 05:01 4,9 C 82 % 1031,3 hPa 0,0 l/m 6,1 km/h (2 Bft) W-NW 292 2,1 C 3,6 C
13.05.2012 05:06 4,9 C 82 % 1031,4 hPa 0,0 l/m 10,1 km/h (2 Bft) W-NW 292 2,1 C 2,5 C
13.05.2012 05:11 4,9 C 82 % 1031,5 hPa 0,0 l/m 8,6 km/h (2 Bft) W 270 2,1 C 2,9 C
13.05.2012 05:16 5,0 C 82 % 1031,5 hPa 0,0 l/m 15,1 km/h (3 Bft) W-NW 292 2,2 C 1,7 C
13.05.2012 05:21 5,1 C 82 % 1031,6 hPa 0,0 l/m 7,6 km/h (2 Bft) NW 315 2,3 C 3,4 C
13.05.2012 05:26 5,1 C 82 % 1031,6 hPa 0,0 l/m 5,0 km/h (1 Bft) W 270 2,3 C 4,2 C
13.05.2012 05:31 5,2 C 82 % 1031,5 hPa 0,0 l/m 7,2 km/h (2 Bft) W-NW 292 2,4 C 3,6 C
13.05.2012 05:36 5,2 C 82 % 1031,5 hPa 0,0 l/m 8,6 km/h (2 Bft) W 270 2,4 C 3,2 C
13.05.2012 05:41 5,3 C 82 % 1031,2 hPa 0,0 l/m 7,2 km/h (2 Bft) W-NW 292 2,5 C 3,7 C
13.05.2012 05:46 5,3 C 82 % 1031,3 hPa 0,0 l/m 9,7 km/h (2 Bft) W-NW 292 2,5 C 3,1 C
13.05.2012 05:51 5,4 C 82 % 1031,5 hPa 0,0 l/m 8,3 km/h (2 Bft) NW 315 2,6 C 3,5 C
13.05.2012 05:56 5,4 C 82 % 1031,6 hPa 0,0 l/m 7,6 km/h (2 Bft) W-NW 292 2,6 C 3,7 C
13.05.2012 06:01 5,5 C 82 % 1031,5 hPa 0,0 l/m 5,8 km/h (2 Bft) N 360 2,7 C 4,4 C
13.05.2012 06:06 5,6 C 82 % 1031,6 hPa 0,0 l/m 9,4 km/h (2 Bft) NW 315 2,8 C 3,5 C
13.05.2012 06:11 5,6 C 81 % 1031,6 hPa 0,0 l/m 7,2 km/h (2 Bft) W-NW 292 2,6 C 4,1 C
13.05.2012 06:16 5,6 C 81 % 1031,7 hPa 0,0 l/m 5,4 km/h (1 Bft) W 270 2,6 C 4,6 C
13.05.2012 06:21 5,6 C 81 % 1031,7 hPa 0,0 l/m 9,7 km/h (2 Bft) NW 315 2,6 C 3,4 C
13.05.2012 06:26 5,8 C 81 % 1031,6 hPa 0,0 l/m 8,3 km/h (2 Bft) W-NW 292 2,8 C 4,0 C
13.05.2012 06:31 5,9 C 82 % 1031,7 hPa 0,0 l/m 8,6 km/h (2 Bft) W 270 3,1 C 4,0 C
13.05.2012 06:36 6,1 C 81 % 1031,6 hPa 0,0 l/m 12,6 km/h (3 Bft) W-NW 292 3,1 C 3,5 C
13.05.2012 06:41 6,3 C 81 % 1031,7 hPa 0,0 l/m 10,1 km/h (2 Bft) W-SW 247 3,3 C 4,2 C
13.05.2012 06:46 6,5 C 80 % 1031,6 hPa 0,0 l/m 11,9 km/h (2 Bft) NW 315 3,3 C 4,1 C
13.05.2012 06:51 6,7 C 79 % 1031,6 hPa 0,0 l/m 7,2 km/h (2 Bft) NW 315 3,3 C 5,3 C
13.05.2012 06:56 6,8 C 79 % 1031,5 hPa 0,0 l/m 6,1 km/h (2 Bft) W-NW 292 3,4 C 5,8 C
13.05.2012 07:01 6,9 C 79 % 1031,5 hPa 0,0 l/m 12,2 km/h (2 Bft) W-NW 292 3,5 C 4,5 C
13.05.2012 07:06 7,1 C 78 % 1031,5 hPa 0,0 l/m 11,2 km/h (2 Bft) W-NW 292 3,5 C 4,9 C
13.05.2012 07:11 7,2 C 78 % 1031,6 hPa 0,0 l/m 11,5 km/h (2 Bft) SW 225 3,6 C 5,0 C
13.05.2012 07:16 7,2 C 77 % 1031,6 hPa 0,0 l/m 11,9 km/h (2 Bft) W-NW 292 3,4 C 4,9 C
13.05.2012 07:21 7,3 C 77 % 1031,6 hPa 0,0 l/m 10,4 km/h (2 Bft) W-NW 292 3,5 C 5,3 C
13.05.2012 07:26 7,5 C 77 % 1031,7 hPa 0,0 l/m 8,6 km/h (2 Bft) W 270 3,7 C 5,9 C
13.05.2012 07:31 7,8 C 76 % 1031,6 hPa 0,0 l/m 10,1 km/h (2 Bft) NW 315 3,8 C 6,0 C
13.05.2012 07:36 8,0 C 76 % 1031,6 hPa 0,0 l/m 6,1 km/h (2 Bft) W-NW 292 4,0 C 7,1 C
13.05.2012 07:41 8,2 C 75 % 1031,6 hPa 0,0 l/m 7,2 km/h (2 Bft) W-NW 292 4,0 C 7,1 C
13.05.2012 07:46 8,4 C 75 % 1031,7 hPa 0,0 l/m 4,0 km/h (1 Bft) NW 315 4,2 C 8,4 C
13.05.2012 07:51 8,5 C 74 % 1031,6 hPa 0,0 l/m 15,8 km/h (3 Bft) NW 315 4,1 C 6,0 C
13.05.2012 07:56 8,7 C 74 % 1031,7 hPa 0,0 l/m 7,9 km/h (2 Bft) NW 315 4,3 C 7,5 C
13.05.2012 08:01 8,8 C 73 % 1031,7 hPa 0,0 l/m 8,6 km/h (2 Bft) N-NW 337 4,2 C 7,5 C
13.05.2012 08:06 8,9 C 73 % 1031,7 hPa 0,0 l/m 7,9 km/h (2 Bft) W-NW 292 4,3 C 7,7 C
13.05.2012 08:11 9,0 C 72 % 1031,7 hPa 0,0 l/m 14,8 km/h (3 Bft) W 270 4,2 C 6,7 C
13.05.2012 08:16 9,1 C 71 % 1031,7 hPa 0,0 l/m 4,3 km/h (1 Bft) O-SO 112 4,1 C 9,1 C
13.05.2012 08:21 9,1 C 71 % 1031,7 hPa 0,0 l/m 11,9 km/h (2 Bft) W-NW 292 4,1 C 7,2 C
13.05.2012 08:26 9,3 C 71 % 1031,6 hPa 0,0 l/m 6,8 km/h (2 Bft) W 270 4,3 C 8,5 C
13.05.2012 08:31 9,4 C 71 % 1031,6 hPa 0,0 l/m 9,4 km/h (2 Bft) W 270 4,4 C 8,0 C
13.05.2012 08:36 9,5 C 70 % 1031,6 hPa 0,0 l/m 15,1 km/h (3 Bft) W-SW 247 4,3 C 7,3 C
13.05.2012 08:41 9,5 C 70 % 1031,6 hPa 0,0 l/m 4,0 km/h (1 Bft) N-NO 22 4,3 C 9,5 C
13.05.2012 08:46 9,6 C 69 % 1031,6 hPa 0,0 l/m 7,6 km/h (2 Bft) W 270 4,2 C 8,6 C
13.05.2012 08:51 9,4 C 68 % 1031,7 hPa 0,0 l/m 2,9 km/h (1 Bft) W-NW 292 3,8 C 9,4 C
13.05.2012 08:56 9,0 C 68 % 1031,6 hPa 0,0 l/m 11,9 km/h (2 Bft) N-NW 337 3,4 C 7,1 C
13.05.2012 09:01 9,1 C 69 % 1031,6 hPa 0,0 l/m 3,2 km/h (1 Bft) NO 45 3,7 C 9,1 C
13.05.2012 09:06 9,2 C 68 % 1031,8 hPa 0,0 l/m 5,8 km/h (2 Bft) W-NW 292 3,6 C 8,6 C
13.05.2012 09:11 9,3 C 68 % 1031,7 hPa 0,0 l/m 10,8 km/h (2 Bft) W-NW 292 3,7 C 7,7 C
13.05.2012 09:16 9,4 C 68 % 1031,8 hPa 0,0 l/m 4,3 km/h (1 Bft) W 270 3,8 C 9,4 C
13.05.2012 09:21 9,3 C 68 % 1031,6 hPa 0,0 l/m 8,6 km/h (2 Bft) N-NO 22 3,7 C 8,1 C
13.05.2012 09:26 9,1 C 68 % 1031,7 hPa 0,0 l/m 2,2 km/h (1 Bft) N-NW 337 3,5 C 9,1 C
13.05.2012 09:31 9,3 C 68 % 1031,7 hPa 0,0 l/m 8,3 km/h (2 Bft) NW 315 3,7 C 8,1 C
13.05.2012 09:36 9,5 C 67 % 1031,7 hPa 0,0 l/m 7,2 km/h (2 Bft) W 270 3,7 C 8,6 C
13.05.2012 09:41 9,8 C 68 % 1031,7 hPa 0,0 l/m 12,2 km/h (2 Bft) N-NW 337 4,2 C 8,0 C
13.05.2012 09:46 9,9 C 67 % 1031,6 hPa 0,0 l/m 8,6 km/h (2 Bft) W 270 4,1 C 8,8 C
13.05.2012 09:51 9,9 C 67 % 1031,6 hPa 0,0 l/m 6,5 km/h (2 Bft) NW 315 4,1 C 9,2 C
13.05.2012 09:56 9,9 C 67 % 1031,5 hPa 0,0 l/m 6,8 km/h (2 Bft) W-NW 292 4,1 C 9,2 C
13.05.2012 10:01 10,3 C 67 % 1031,7 hPa 0,0 l/m 5,0 km/h (1 Bft) W-SW 247 4,4 C 10,3 C
13.05.2012 10:06 10,5 C 66 % 1031,5 hPa 0,0 l/m 15,8 km/h (3 Bft) W 270 4,4 C 10,5 C
13.05.2012 10:11 10,6 C 65 % 1031,6 hPa 0,0 l/m 21,2 km/h (4 Bft) NW 315 4,3 C 10,6 C
13.05.2012 10:16 10,5 C 64 % 1031,7 hPa 0,0 l/m 6,1 km/h (2 Bft) N 360 4,0 C 10,5 C
13.05.2012 10:21 10,4 C 63 % 1031,6 hPa 0,0 l/m 7,6 km/h (2 Bft) N-NO 22 3,7 C 10,4 C
13.05.2012 10:26 10,8 C 64 % 1031,6 hPa 0,0 l/m 18,4 km/h (3 Bft) W-NW 292 4,3 C 10,8 C
13.05.2012 10:31 10,9 C 63 % 1031,6 hPa 0,0 l/m 4,7 km/h (1 Bft) N 360 4,1 C 10,9 C
13.05.2012 10:36 10,6 C 61 % 1031,6 hPa 0,0 l/m 4,0 km/h (1 Bft) NW 315 3,4 C 10,6 C
13.05.2012 10:41 10,4 C 60 % 1031,7 hPa 0,0 l/m 4,0 km/h (1 Bft) N-NO 22 3,0 C 10,4 C
13.05.2012 10:46 10,7 C 61 % 1031,7 hPa 0,0 l/m 8,6 km/h (2 Bft) N-NW 337 3,5 C 10,7 C
13.05.2012 10:51 10,9 C 61 % 1031,6 hPa 0,0 l/m 15,8 km/h (3 Bft) W 270 3,7 C 10,9 C
13.05.2012 10:56 11,1 C 60 % 1031,6 hPa 0,0 l/m 2,9 km/h (1 Bft) W-NW 292 3,6 C 11,1 C
13.05.2012 11:01 11,1 C 60 % 1031,6 hPa 0,0 l/m 8,3 km/h (2 Bft) W 270 3,6 C 11,1 C
13.05.2012 11:06 11,3 C 60 % 1031,4 hPa 0,0 l/m 14,0 km/h (3 Bft) W-NW 292 3,8 C 11,3 C
13.05.2012 11:11 11,5 C 59 % 1031,4 hPa 0,0 l/m 4,7 km/h (1 Bft) NW 315 3,8 C 11,5 C
13.05.2012 11:16 11,3 C 57 % 1031,3 hPa 0,0 l/m 6,8 km/h (2 Bft) N-NW 337 3,1 C 11,3 C
13.05.2012 11:21 11,2 C 57 % 1031,5 hPa 0,0 l/m 3,6 km/h (1 Bft) N-NW 337 3,0 C 11,2 C
13.05.2012 11:26 11,0 C 56 % 1031,5 hPa 0,0 l/m 8,3 km/h (2 Bft) NW 315 2,6 C 11,0 C
13.05.2012 11:31 10,9 C 57 % 1031,4 hPa 0,0 l/m 3,6 km/h (1 Bft) W 270 2,7 C 10,9 C
13.05.2012 11:36 11,1 C 55 % 1031,3 hPa 0,0 l/m 13,3 km/h (3 Bft) N 360 2,4 C 11,1 C
13.05.2012 11:41 11,0 C 53 % 1031,5 hPa 0,0 l/m 9,0 km/h (2 Bft) N-NO 22 1,8 C 11,0 C
13.05.2012 11:46 10,9 C 54 % 1031,4 hPa 0,0 l/m 5,4 km/h (1 Bft) W 270 2,0 C 10,9 C
13.05.2012 11:51 11,1 C 56 % 1031,4 hPa 0,0 l/m 12,6 km/h (3 Bft) NW 315 2,7 C 11,1 C
13.05.2012 11:56 11,1 C 54 % 1031,4 hPa 0,0 l/m 4,3 km/h (1 Bft) N-NW 337 2,2 C 11,1 C
13.05.2012 12:01 11,0 C 54 % 1031,3 hPa 0,0 l/m 5,4 km/h (1 Bft) N-NO 22 2,1 C 11,0 C
13.05.2012 12:06 10,9 C 54 % 1031,3 hPa 0,0 l/m 5,8 km/h (2 Bft) W 270 2,0 C 10,9 C
13.05.2012 12:11 11,2 C 53 % 1031,5 hPa 0,0 l/m 6,1 km/h (2 Bft) N 360 2,0 C 11,2 C
13.05.2012 12:16 11,1 C 53 % 1031,4 hPa 0,0 l/m 4,0 km/h (1 Bft) W 270 1,9 C 11,1 C
13.05.2012 12:21 11,2 C 54 % 1031,4 hPa 0,0 l/m 6,1 km/h (2 Bft) NW 315 2,2 C 11,2 C
13.05.2012 12:26 11,5 C 53 % 1031,4 hPa 0,0 l/m 4,0 km/h (1 Bft) NW 315 2,3 C 11,5 C
13.05.2012 12:31 11,6 C 52 % 1031,4 hPa 0,0 l/m 5,4 km/h (1 Bft) N-NO 22 2,1 C 11,6 C
13.05.2012 12:36 11,4 C 52 % 1031,3 hPa 0,0 l/m 2,2 km/h (1 Bft) N 360 1,9 C 11,4 C
13.05.2012 12:41 11,4 C 51 % 1031,0 hPa 0,0 l/m 4,7 km/h (1 Bft) N-NO 22 1,6 C 11,4 C
13.05.2012 12:46 11,6 C 53 % 1031,1 hPa 0,0 l/m 9,7 km/h (2 Bft) W-SW 247 2,4 C 11,6 C
13.05.2012 12:51 11,6 C 51 % 1031,2 hPa 0,0 l/m 1,8 km/h (1 Bft) NO 45 1,8 C 11,6 C
13.05.2012 12:56 11,6 C 51 % 1031,0 hPa 0,0 l/m 5,0 km/h (1 Bft) W 270 1,8 C 11,6 C
13.05.2012 13:01 12,1 C 51 % 1031,0 hPa 0,0 l/m 2,2 km/h (1 Bft) N 360 2,3 C 12,1 C
13.05.2012 13:06 12,6 C 49 % 1030,7 hPa 0,0 l/m 6,5 km/h (2 Bft) W-NW 292 2,2 C 12,6 C
13.05.2012 13:11 12,9 C 49 % 1030,8 hPa 0,0 l/m 2,5 km/h (1 Bft) W-SW 247 2,5 C 12,9 C
13.05.2012 13:16 12,7 C 49 % 1030,9 hPa 0,0 l/m 12,6 km/h (3 Bft) W-NW 292 2,3 C 12,7 C
13.05.2012 13:21 12,6 C 49 % 1030,9 hPa 0,0 l/m 5,8 km/h (2 Bft) W 270 2,2 C 12,6 C
13.05.2012 13:26 12,9 C 48 % 1030,9 hPa 0,0 l/m 5,8 km/h (2 Bft) O-NO 67 2,2 C 12,9 C
13.05.2012 13:31 12,8 C 45 % 1030,8 hPa 0,0 l/m 4,7 km/h (1 Bft) N-NW 337 1,2 C 12,8 C
13.05.2012 13:36 13,0 C 45 % 1030,7 hPa 0,0 l/m 9,7 km/h (2 Bft) N 360 1,4 C 13,0 C
13.05.2012 13:41 12,9 C 45 % 1030,8 hPa 0,0 l/m 4,0 km/h (1 Bft) W-NW 292 1,3 C 12,9 C
13.05.2012 13:46 12,9 C 47 % 1030,8 hPa 0,0 l/m 8,6 km/h (2 Bft) W-NW 292 1,9 C 12,9 C
13.05.2012 13:51 13,0 C 47 % 1030,8 hPa 0,0 l/m 7,6 km/h (2 Bft) W 270 2,0 C 13,0 C
13.05.2012 13:56 13,1 C 47 % 1030,8 hPa 0,0 l/m 2,5 km/h (1 Bft) N 360 2,0 C 13,1 C
13.05.2012 14:01 13,1 C 47 % 1030,3 hPa 0,0 l/m 4,7 km/h (1 Bft) W-NW 292 2,0 C 13,1 C
13.05.2012 14:06 13,2 C 47 % 1030,5 hPa 0,0 l/m 6,8 km/h (2 Bft) NW 315 2,1 C 13,2 C
13.05.2012 14:11 13,3 C 47 % 1030,5 hPa 0,0 l/m 8,3 km/h (2 Bft) W 270 2,2 C 13,3 C
13.05.2012 14:16 13,3 C 47 % 1030,5 hPa 0,0 l/m 3,2 km/h (1 Bft) N-NO 22 2,2 C 13,3 C
13.05.2012 14:21 13,0 C 46 % 1030,6 hPa 0,0 l/m 3,2 km/h (1 Bft) NO 45 1,7 C 13,0 C
13.05.2012 14:26 12,5 C 46 % 1030,4 hPa 0,0 l/m 3,2 km/h (1 Bft) N-NO 22 1,2 C 12,5 C
13.05.2012 14:31 12,5 C 48 % 1030,2 hPa 0,0 l/m 4,3 km/h (1 Bft) W 270 1,8 C 12,5 C
13.05.2012 14:36 12,7 C 48 % 1030,3 hPa 0,0 l/m 4,0 km/h (1 Bft) W-NW 292 2,0 C 12,7 C
13.05.2012 14:41 12,9 C 48 % 1030,2 hPa 0,0 l/m 1,4 km/h (1 Bft) W 270 2,2 C 12,9 C
13.05.2012 14:46 13,6 C 49 % 1030,1 hPa 0,0 l/m 2,2 km/h (1 Bft) NW 315 3,1 C 13,6 C
13.05.2012 14:51 13,9 C 47 % 1030,1 hPa 0,0 l/m 5,8 km/h (2 Bft) N-NO 22 2,8 C 13,9 C
13.05.2012 14:56 13,8 C 46 % 1030,1 hPa 0,0 l/m 10,1 km/h (2 Bft) N-NW 337 2,4 C 13,8 C
13.05.2012 15:01 13,8 C 46 % 1030,1 hPa 0,0 l/m 3,2 km/h (1 Bft) O-NO 67 2,4 C 13,8 C
13.05.2012 15:06 13,9 C 46 % 1030,0 hPa 0,0 l/m 4,0 km/h (1 Bft) W 270 2,5 C 13,9 C
13.05.2012 15:11 14,2 C 44 % 1030,0 hPa 0,0 l/m 4,7 km/h (1 Bft) NW 315 2,1 C 14,2 C
13.05.2012 15:16 14,3 C 43 % 1029,9 hPa 0,0 l/m 6,8 km/h (2 Bft) W-NW 292 1,9 C 14,3 C
13.05.2012 15:21 14,2 C 43 % 1029,9 hPa 0,0 l/m 5,8 km/h (2 Bft) W-NW 292 1,8 C 14,2 C
13.05.2012 15:26 14,1 C 44 % 1029,9 hPa 0,0 l/m 11,2 km/h (2 Bft) W 270 2,0 C 14,1 C
13.05.2012 15:31 14,3 C 44 % 1029,9 hPa 0,0 l/m 5,4 km/h (1 Bft) W 270 2,2 C 14,3 C
13.05.2012 15:36 14,8 C 44 % 1029,8 hPa 0,0 l/m 9,0 km/h (2 Bft) W-NW 292 2,7 C 14,8 C
13.05.2012 15:41 14,9 C 43 % 1029,8 hPa 0,0 l/m 0,0 km/h (0 Bft) W 270 2,4 C 14,9 C
13.05.2012 15:46 14,9 C 42 % 1029,7 hPa 0,0 l/m 3,2 km/h (1 Bft) W-NW 292 2,1 C 14,9 C
13.05.2012 15:51 14,9 C 41 % 1029,7 hPa 0,0 l/m 3,6 km/h (1 Bft) W 270 1,8 C 14,9 C
13.05.2012 15:56 14,9 C 41 % 1029,6 hPa 0,0 l/m 5,0 km/h (1 Bft) NW 315 1,8 C 14,9 C
13.05.2012 16:01 14,6 C 41 % 1029,7 hPa 0,0 l/m 7,9 km/h (2 Bft) W 270 1,5 C 14,6 C
13.05.2012 16:06 14,4 C 42 % 1029,6 hPa 0,0 l/m 4,3 km/h (1 Bft) O 90 1,7 C 14,4 C
13.05.2012 16:11 14,2 C 43 % 1029,6 hPa 0,0 l/m 4,0 km/h (1 Bft) NW 315 1,8 C 14,2 C
13.05.2012 16:16 14,1 C 43 % 1029,2 hPa 0,0 l/m 7,9 km/h (2 Bft) W 270 1,7 C 14,1 C
13.05.2012 16:21 14,1 C 44 % 1029,2 hPa 0,0 l/m 4,7 km/h (1 Bft) W-NW 292 2,0 C 14,1 C
13.05.2012 16:26 14,2 C 43 % 1029,2 hPa 0,0 l/m 0,0 km/h (0 Bft) N-NW 337 1,8 C 14,2 C
13.05.2012 16:31 14,0 C 43 % 1029,2 hPa 0,0 l/m 0,0 km/h (0 Bft) W 270 1,6 C 14,0 C
13.05.2012 16:36 14,0 C 43 % 1029,2 hPa 0,0 l/m 1,1 km/h (1 Bft) NW 315 1,6 C 14,0 C
13.05.2012 16:41 13,8 C 42 % 1029,1 hPa 0,0 l/m 0,0 km/h (0 Bft) NW 315 1,1 C 13,8 C
13.05.2012 16:46 13,6 C 44 % 1029,1 hPa 0,0 l/m 0,0 km/h (0 Bft) W-NW 292 1,6 C 13,6 C
13.05.2012 16:51 13,8 C 44 % 1029,1 hPa 0,0 l/m 4,0 km/h (1 Bft) W-NW 292 1,8 C 13,8 C
13.05.2012 16:56 14,1 C 43 % 1029,2 hPa 0,0 l/m 6,1 km/h (2 Bft) NW 315 1,7 C 14,1 C
13.05.2012 17:01 14,2 C 41 % 1029,2 hPa 0,0 l/m 5,4 km/h (1 Bft) O 90 1,1 C 14,2 C
13.05.2012 17:06 14,3 C 41 % 1029,1 hPa 0,0 l/m 0,0 km/h (0 Bft) S-SO 157 1,2 C 14,3 C
13.05.2012 17:11 14,5 C 41 % 1029,1 hPa 0,0 l/m 4,0 km/h (1 Bft) W 270 1,4 C 14,5 C
13.05.2012 17:16 14,6 C 42 % 1029,1 hPa 0,0 l/m 9,7 km/h (2 Bft) W-NW 292 1,8 C 14,6 C
13.05.2012 17:21 14,9 C 42 % 1029,1 hPa 0,0 l/m 4,3 km/h (1 Bft) W 270 2,1 C 14,9 C
13.05.2012 17:26 14,9 C 41 % 1029,0 hPa 0,0 l/m 1,1 km/h (1 Bft) W 270 1,8 C 14,9 C
13.05.2012 17:31 14,9 C 42 % 1029,0 hPa 0,0 l/m 1,4 km/h (1 Bft) W-NW 292 2,1 C 14,9 C
13.05.2012 17:36 14,6 C 42 % 1029,0 hPa 0,0 l/m 0,0 km/h (0 Bft) W-NW 292 1,8 C 14,6 C
13.05.2012 17:41 14,4 C 43 % 1029,0 hPa 0,0 l/m 3,6 km/h (1 Bft) NW 315 2,0 C 14,4 C
13.05.2012 17:46 14,3 C 43 % 1028,8 hPa 0,0 l/m 2,2 km/h (1 Bft) W 270 1,9 C 14,3 C
13.05.2012 17:51 14,4 C 43 % 1028,8 hPa 0,0 l/m 4,7 km/h (1 Bft) W-NW 292 2,0 C 14,4 C
13.05.2012 17:56 14,3 C 43 % 1028,8 hPa 0,0 l/m 2,5 km/h (1 Bft) NW 315 1,9 C 14,3 C
13.05.2012 18:01 14,1 C 42 % 1028,7 hPa 0,0 l/m 1,8 km/h (1 Bft) NO 45 1,4 C 14,1 C
13.05.2012 18:06 13,6 C 43 % 1028,8 hPa 0,0 l/m 5,0 km/h (1 Bft) NW 315 1,3 C 13,6 C
13.05.2012 18:11 13,6 C 43 % 1028,7 hPa 0,0 l/m 1,8 km/h (1 Bft) NW 315 1,3 C 13,6 C
13.05.2012 18:16 13,7 C 44 % 1028,7 hPa 0,0 l/m 2,5 km/h (1 Bft) SW 225 1,7 C 13,7 C
13.05.2012 18:21 13,9 C 43 % 1028,6 hPa 0,0 l/m 3,6 km/h (1 Bft) NO 45 1,5 C 13,9 C
13.05.2012 18:26 14,1 C 43 % 1028,6 hPa 0,0 l/m 3,2 km/h (1 Bft) W-SW 247 1,7 C 14,1 C
13.05.2012 18:31 14,4 C 43 % 1028,5 hPa 0,0 l/m 0,0 km/h (0 Bft) W 270 2,0 C 14,4 C
13.05.2012 18:36 14,4 C 43 % 1028,3 hPa 0,0 l/m 1,1 km/h (1 Bft) W-NW 292 2,0 C 14,4 C
13.05.2012 18:41 14,4 C 43 % 1028,3 hPa 0,0 l/m 0,0 km/h (0 Bft) W 270 2,0 C 14,4 C
13.05.2012 18:46 14,3 C 43 % 1028,2 hPa 0,0 l/m 2,5 km/h (1 Bft) W 270 1,9 C 14,3 C
13.05.2012 18:51 14,3 C 44 % 1028,2 hPa 0,0 l/m 5,0 km/h (1 Bft) W-SW 247 2,2 C 14,3 C
13.05.2012 18:56 14,3 C 44 % 1028,2 hPa 0,0 l/m 4,7 km/h (1 Bft) W-SW 247 2,2 C 14,3 C
13.05.2012 19:01 14,4 C 43 % 1028,1 hPa 0,0 l/m 2,2 km/h (1 Bft) S-SO 157 2,0 C 14,4 C
13.05.2012 19:06 14,3 C 43 % 1028,0 hPa 0,0 l/m 2,9 km/h (1 Bft) W-SW 247 1,9 C 14,3 C
13.05.2012 19:11 14,2 C 43 % 1028,0 hPa 0,0 l/m 2,2 km/h (1 Bft) W-SW 247 1,8 C 14,2 C
13.05.2012 19:16 14,1 C 43 % 1028,0 hPa 0,0 l/m 0,0 km/h (0 Bft) SW 225 1,7 C 14,1 C
13.05.2012 19:21 14,1 C 44 % 1028,0 hPa 0,0 l/m 0,0 km/h (0 Bft) W-SW 247 2,0 C 14,1 C
13.05.2012 19:26 13,9 C 44 % 1028,0 hPa 0,0 l/m 3,2 km/h (1 Bft) W-SW 247 1,9 C 13,9 C
13.05.2012 19:31 13,8 C 45 % 1028,0 hPa 0,0 l/m 2,9 km/h (1 Bft) SW 225 2,1 C 13,8 C
13.05.2012 19:36 13,6 C 45 % 1028,0 hPa 0,0 l/m 0,0 km/h (0 Bft) S-SW 202 1,9 C 13,6 C
13.05.2012 19:41 13,6 C 46 % 1028,0 hPa 0,0 l/m 0,0 km/h (0 Bft) S 180 2,2 C 13,6 C
13.05.2012 19:46 13,4 C 46 % 1027,9 hPa 0,0 l/m 0,0 km/h (0 Bft) S 180 2,0 C 13,4 C
13.05.2012 19:51 13,4 C 46 % 1028,0 hPa 0,0 l/m 0,0 km/h (0 Bft) S 180 2,0 C 13,4 C
13.05.2012 19:56 13,3 C 47 % 1027,9 hPa 0,0 l/m 0,0 km/h (0 Bft) S-SW 202 2,2 C 13,3 C
13.05.2012 20:01 13,3 C 46 % 1027,9 hPa 0,0 l/m 0,0 km/h (0 Bft) S-SW 202 1,9 C 13,3 C
13.05.2012 20:06 13,1 C 47 % 1027,9 hPa 0,0 l/m 0,0 km/h (0 Bft) S 180 2,0 C 13,1 C
13.05.2012 20:11 13,1 C 46 % 1027,9 hPa 0,0 l/m 0,0 km/h (0 Bft) S-SW 202 1,7 C 13,1 C
13.05.2012 20:16 12,9 C 46 % 1027,9 hPa 0,0 l/m 0,0 km/h (0 Bft) S 180 1,6 C 12,9 C
13.05.2012 20:21 12,9 C 46 % 1027,8 hPa 0,0 l/m 0,0 km/h (0 Bft) S-SO 157 1,6 C 12,9 C
13.05.2012 20:26 12,8 C 47 % 1027,7 hPa 0,0 l/m 2,9 km/h (1 Bft) S-SO 157 1,8 C 12,8 C
13.05.2012 20:31 12,8 C 47 % 1027,7 hPa 0,0 l/m 0,0 km/h (0 Bft) S-SO 157 1,8 C 12,8 C
13.05.2012 20:36 12,7 C 47 % 1027,9 hPa 0,0 l/m 2,5 km/h (1 Bft) S-SO 157 1,7 C 12,7 C
13.05.2012 20:41 12,6 C 48 % 1027,8 hPa 0,0 l/m 2,5 km/h (1 Bft) S-SO 157 1,9 C 12,6 C
13.05.2012 20:46 12,6 C 48 % 1027,8 hPa 0,0 l/m 0,0 km/h (0 Bft) S 180 1,9 C 12,6 C
13.05.2012 20:51 12,4 C 49 % 1027,8 hPa 0,0 l/m 3,6 km/h (1 Bft) S 180 2,0 C 12,4 C
13.05.2012 20:56 12,4 C 49 % 1027,8 hPa 0,0 l/m 0,0 km/h (0 Bft) SO 135 2,0 C 12,4 C
13.05.2012 21:01 12,3 C 50 % 1027,8 hPa 0,0 l/m 2,2 km/h (1 Bft) S-SO 157 2,2 C 12,3 C
13.05.2012 21:06 12,2 C 50 % 1027,8 hPa 0,0 l/m 0,0 km/h (0 Bft) S 180 2,1 C 12,2 C
13.05.2012 21:11 12,1 C 50 % 1027,9 hPa 0,0 l/m 3,2 km/h (1 Bft) S-SO 157 2,0 C 12,1 C
13.05.2012 21:16 12,1 C 51 % 1027,9 hPa 0,0 l/m 1,4 km/h (1 Bft) S 180 2,3 C 12,1 C
13.05.2012 21:21 11,9 C 51 % 1027,8 hPa 0,0 l/m 1,1 km/h (1 Bft) S-SO 157 2,1 C 11,9 C
13.05.2012 21:26 11,9 C 51 % 1027,9 hPa 0,0 l/m 1,8 km/h (1 Bft) S-SO 157 2,1 C 11,9 C
13.05.2012 21:31 11,9 C 52 % 1027,9 hPa 0,0 l/m 1,8 km/h (1 Bft) S 180 2,4 C 11,9 C
13.05.2012 21:36 11,8 C 52 % 1027,9 hPa 0,0 l/m 2,2 km/h (1 Bft) S 180 2,3 C 11,8 C
13.05.2012 21:41 11,7 C 52 % 1028,0 hPa 0,0 l/m 4,0 km/h (1 Bft) S 180 2,2 C 11,7 C
13.05.2012 21:46 11,6 C 52 % 1027,8 hPa 0,0 l/m 4,3 km/h (1 Bft) S 180 2,1 C 11,6 C
13.05.2012 21:51 11,6 C 52 % 1027,7 hPa 0,0 l/m 1,1 km/h (1 Bft) S-SO 157 2,1 C 11,6 C
13.05.2012 21:56 11,5 C 52 % 1027,7 hPa 0,0 l/m 2,5 km/h (1 Bft) SO 135 2,0 C 11,5 C
13.05.2012 22:01 11,5 C 52 % 1027,7 hPa 0,0 l/m 1,1 km/h (1 Bft) S 180 2,0 C 11,5 C
13.05.2012 22:06 11,4 C 52 % 1027,7 hPa 0,0 l/m 1,4 km/h (1 Bft) S 180 1,9 C 11,4 C
13.05.2012 22:11 11,4 C 52 % 1027,8 hPa 0,0 l/m 1,4 km/h (1 Bft) S 180 1,9 C 11,4 C
13.05.2012 22:16 11,4 C 53 % 1027,7 hPa 0,0 l/m 0,0 km/h (0 Bft) S 180 2,2 C 11,4 C
13.05.2012 22:21 11,3 C 53 % 1027,6 hPa 0,0 l/m 2,2 km/h (1 Bft) S-SO 157 2,1 C 11,3 C
13.05.2012 22:26 11,2 C 53 % 1027,7 hPa 0,0 l/m 1,1 km/h (1 Bft) S-SO 157 2,0 C 11,2 C
13.05.2012 22:31 11,2 C 54 % 1027,7 hPa 0,0 l/m 0,0 km/h (0 Bft) S-SO 157 2,2 C 11,2 C
13.05.2012 22:36 11,1 C 54 % 1027,7 hPa 0,0 l/m 0,0 km/h (0 Bft) S 180 2,2 C 11,1 C
13.05.2012 22:41 11,0 C 54 % 1027,6 hPa 0,0 l/m 1,4 km/h (1 Bft) S-SO 157 2,1 C 11,0 C
13.05.2012 22:46 11,0 C 54 % 1027,6 hPa 0,0 l/m 2,5 km/h (1 Bft) S-SO 157 2,1 C 11,0 C
13.05.2012 22:51 11,0 C 54 % 1027,6 hPa 0,0 l/m 1,4 km/h (1 Bft) S-SW 202 2,1 C 11,0 C
13.05.2012 22:56 10,9 C 54 % 1027,4 hPa 0,0 l/m 0,0 km/h (0 Bft) S-SO 157 2,0 C 10,9 C
13.05.2012 23:01 10,9 C 54 % 1027,5 hPa 0,0 l/m 0,0 km/h (0 Bft) S-SW 202 2,0 C 10,9 C
13.05.2012 23:06 10,8 C 55 % 1027,4 hPa 0,0 l/m 2,5 km/h (1 Bft) W 270 2,1 C 10,8 C
13.05.2012 23:11 10,6 C 55 % 1027,5 hPa 0,0 l/m 2,2 km/h (1 Bft) S-SO 157 1,9 C 10,6 C
13.05.2012 23:16 10,5 C 55 % 1027,5 hPa 0,0 l/m 5,0 km/h (1 Bft) S-SO 157 1,8 C 10,5 C
13.05.2012 23:21 10,4 C 55 % 1027,4 hPa 0,0 l/m 1,8 km/h (1 Bft) S 180 1,8 C 10,4 C
13.05.2012 23:26 10,4 C 56 % 1027,5 hPa 0,0 l/m 0,0 km/h (0 Bft) SW 225 2,0 C 10,4 C
13.05.2012 23:31 10,4 C 56 % 1027,5 hPa 0,0 l/m 0,0 km/h (0 Bft) S-SW 202 2,0 C 10,4 C
13.05.2012 23:36 10,4 C 57 % 1027,4 hPa 0,0 l/m 1,8 km/h (1 Bft) S-SO 157 2,3 C 10,4 C
13.05.2012 23:41 10,4 C 58 % 1027,4 hPa 0,0 l/m 0,0 km/h (0 Bft) SO 135 2,5 C 10,4 C
13.05.2012 23:46 10,4 C 58 % 1027,3 hPa 0,0 l/m 1,8 km/h (1 Bft) S 180 2,5 C 10,4 C
13.05.2012 23:51 10,4 C 58 % 1027,3 hPa 0,0 l/m 1,8 km/h (1 Bft) S-SO 157 2,5 C 10,4 C
13.05.2012 23:56 10,4 C 59 % 1027,3 hPa 0,0 l/m 0,0 km/h (0 Bft) S-SO 157 2,7 C 10,4 C
_ Min-Zeit 04:36 15:51 23:46 - 15:41 - - 16:41 04:46
Minimum _ 4,9 C 41 % 1027,3 hPa - 0,0 km/h (0 Bft) - - 1,1 C 1,6 C
_ Max-Zeit 15:41 05:01 00:41 00:01 10:11 - - 10:01 15:41
Maximum _ 14,9 C 82 % 1032,6 hPa 0,0 l/m 21,2 km/h
NW (4 Bft)
- - 4,4 C 14,9 C
Durchschnitt _ 10,1 C 60 % 1030,4 hPa #0,0 l/m 5,8 km/h (1 Bft) W-NW - 2,3 C 9,4 C
(c) by David Heller